Time;durP1;ratioP1;P1;durP2;ratioP2;P2;SDS_P1;SDS_P2;PMS_P1;PMS_P2;Temp;Humidity;BMP_temperature;BMP_pressure;BME280_temperature;BME280_humidity;BME280_pressure;Samples;Min_cycle;Max_cycle;Signal;HPM_P1;HPM_P2
2022/04/07 00:00:16;;;;;;;37.25;20.62;;;;;;;5.41;90.77;96476.78;1742577;82;21167;-56
2022/04/07 00:02:46;;;;;;;32.33;19.98;;;;;;;5.46;90.08;96473.48;1742598;81;20974;-57
2022/04/07 00:05:12;;;;;;;41.23;23.02;;;;;;;5.52;91.85;96469.66;1742693;82;21006;-57
2022/04/07 00:07:39;;;;;;;30.20;19.25;;;;;;;5.61;89.69;96475.22;1745155;80;21049;-57
2022/04/07 00:10:07;;;;;;;26.60;17.12;;;;;;;5.64;89.92;96464.72;1773298;80;20981;-57
2022/04/07 00:12:33;;;;;;;42.58;23.02;;;;;;;5.64;88.75;96466.06;1772721;80;21581;-57
2022/04/07 00:15:01;;;;;;;39.67;22.60;;;;;;;5.72;88.75;96465.16;1742738;81;21239;-57
2022/04/07 00:17:28;;;;;;;44.08;24.20;;;;;;;5.81;88.69;96457.54;1743055;81;21069;-57
2022/04/07 00:19:55;;;;;;;36.68;22.35;;;;;;;5.92;88.75;96459.05;1763061;80;21512;-57
2022/04/07 00:22:22;;;;;;;35.98;21.75;;;;;;;6.02;88.44;96460.00;1749607;80;22082;-57
2022/04/07 00:24:49;;;;;;;31.65;19.42;;;;;;;6.06;88.30;96447.02;1752343;81;21475;-57
2022/04/07 00:27:16;;;;;;;31.05;17.62;;;;;;;6.09;88.51;96457.77;1746825;81;20990;-57
2022/04/07 00:29:43;;;;;;;26.82;18.57;;;;;;;6.05;87.95;96452.15;1752570;80;20974;-57
2022/04/07 00:32:10;;;;;;;34.78;18.92;;;;;;;5.97;88.67;96443.38;1742762;82;21053;-56
2022/04/07 00:34:37;;;;;;;25.35;17.45;;;;;;;5.90;88.72;96438.38;1742590;81;21068;-57
2022/04/07 00:37:04;;;;;;;30.32;18.62;;;;;;;5.88;88.19;96442.39;1758750;80;21399;-57
2022/04/07 00:39:31;;;;;;;34.30;19.90;;;;;;;5.82;87.98;96432.26;1749422;80;21014;-57
2022/04/07 00:41:58;;;;;;;37.00;21.02;;;;;;;5.86;87.80;96439.19;1743178;82;20998;-57
2022/04/07 00:44:27;;;;;;;37.53;22.40;;;;;;;5.89;87.75;96442.64;1767472;80;20996;-57
2022/04/07 00:46:54;;;;;;;33.15;22.02;;;;;;;5.91;87.90;96439.97;1755737;80;21045;-56
2022/04/07 00:49:21;;;;;;;38.17;20.80;;;;;;;5.93;88.55;96440.48;1742756;82;21344;-57
2022/04/07 00:51:49;;;;;;;32.03;18.52;;;;;;;5.95;88.11;96442.88;1743002;81;20986;-57
2022/04/07 00:54:16;;;;;;;31.40;18.40;;;;;;;5.91;89.36;96438.62;1742723;81;21255;-57
2022/04/07 00:56:42;;;;;;;30.50;17.37;;;;;;;5.90;88.05;96430.83;1743072;82;21413;-57
2022/04/07 00:59:14;;;;;;;33.33;19.32;;;;;;;5.89;87.67;96434.03;1740684;82;21010;-57
2022/04/07 01:01:41;;;;;;;30.27;16.82;;;;;;;5.87;88.75;96437.55;1722136;82;21996;-57
2022/04/07 01:04:08;;;;;;;36.70;17.48;;;;;;;5.88;88.70;96425.71;1757454;80;21574;-56
2022/04/07 01:06:35;;;;;;;29.60;17.80;;;;;;;5.85;88.78;96423.61;1742718;82;20995;-57
2022/04/07 01:09:02;;;;;;;30.27;19.30;;;;;;;5.83;88.77;96423.65;1753704;80;20997;-57
2022/04/07 01:11:29;;;;;;;29.23;15.75;;;;;;;5.83;88.37;96415.04;1755930;80;21280;-57
2022/04/07 01:13:56;;;;;;;31.55;17.20;;;;;;;5.89;88.63;96412.52;1765399;80;21672;-57
2022/04/07 01:16:26;;;;;;;28.77;16.62;;;;;;;5.99;88.71;96400.09;1742921;82;21048;-57
2022/04/07 01:18:55;;;;;;;29.60;17.20;;;;;;;6.04;88.53;96410.77;1742856;81;21018;-57
2022/04/07 01:21:22;;;;;;;;;;;;;;;6.13;88.64;96404.45;1745623;81;21485;-57
2022/04/07 01:24:11;;;;;;;25.55;15.72;;;;;;;6.19;88.49;96414.59;1742988;82;20163;-57
2022/04/07 01:26:41;;;;;;;23.00;14.70;;;;;;;6.21;89.26;96411.06;1743138;82;21080;-57
2022/04/07 01:29:13;;;;;;;23.40;16.80;;;;;;;6.15;89.16;96408.19;1742077;80;20978;-57
2022/04/07 01:31:41;;;;;;;27.55;15.80;;;;;;;6.11;88.55;96403.94;1742926;82;21453;-58
2022/04/07 01:34:12;;;;;;;24.43;15.80;;;;;;;6.08;87.83;96414.49;1742832;81;21005;-57
2022/04/07 01:36:41;;;;;;;24.72;17.67;;;;;;;6.06;89.00;96416.65;1760686;80;21007;-58
2022/04/07 01:39:09;;;;;;;28.95;17.73;;;;;;;6.10;88.15;96410.95;1703816;82;21456;-58
2022/04/07 01:41:36;;;;;;;32.58;20.55;;;;;;;6.15;87.91;96415.73;1756740;81;21049;-57
2022/04/07 01:44:03;;;;;;;32.03;17.62;;;;;;;6.25;88.10;96409.95;1742870;81;20995;-57
2022/04/07 01:46:31;;;;;;;28.42;17.15;;;;;;;6.39;88.25;96405.43;1743298;82;21053;-57
2022/04/07 01:48:58;;;;;;;25.97;16.75;;;;;;;6.52;88.05;96397.19;1742967;81;21002;-57
2022/04/07 01:51:25;;;;;;;25.55;14.93;;;;;;;6.64;87.89;96398.31;1743117;82;21030;-57
2022/04/07 01:53:52;;;;;;;30.55;17.75;;;;;;;6.75;87.71;96402.98;1749806;80;21069;-57
2022/04/07 01:56:19;;;;;;;25.88;15.60;;;;;;;6.81;87.76;96400.47;1763241;80;21054;-57
2022/04/07 01:58:46;;;;;;;25.70;14.78;;;;;;;6.83;87.19;96390.75;1748813;80;21013;-57
2022/04/07 02:01:15;;;;;;;34.85;20.75;;;;;;;6.83;87.08;96386.16;1764130;80;21348;-57
2022/04/07 02:03:42;;;;;;;29.03;19.83;;;;;;;6.78;87.22;96381.67;1743306;81;21261;-57
2022/04/07 02:06:11;;;;;;;24.87;17.10;;;;;;;6.72;87.17;96378.80;1742823;82;21478;-58
2022/04/07 02:08:38;;;;;;;20.90;15.32;;;;;;;6.64;87.44;96378.67;1743013;81;21923;-57
2022/04/07 02:11:05;;;;;;;32.40;19.20;;;;;;;6.55;87.67;96377.20;1743245;82;21006;-57
2022/04/07 02:13:33;;;;;;;33.85;22.32;;;;;;;6.46;87.38;96383.80;1742835;81;21002;-57
2022/04/07 02:16:01;;;;;;;38.05;22.87;;;;;;;6.40;87.28;96392.23;1742930;82;21010;-57
2022/04/07 02:18:28;;;;;;;25.88;16.15;;;;;;;6.36;87.60;96398.75;1743019;81;21014;-57
2022/04/07 02:20:55;;;;;;;33.05;22.45;;;;;;;6.32;86.98;96398.27;1742963;82;21289;-57
2022/04/07 02:23:22;;;;;;;35.73;21.65;;;;;;;6.13;89.07;96411.17;1743129;81;21057;-57
2022/04/07 02:25:49;;;;;;;35.45;23.55;;;;;;;6.14;87.69;96409.28;1742793;82;21607;-57
2022/04/07 02:28:16;;;;;;;35.20;22.48;;;;;;;6.14;87.46;96403.35;1743089;81;21453;-57
2022/04/07 02:30:43;;;;;;;30.40;20.62;;;;;;;6.10;87.34;96410.41;1742792;82;20955;-57
2022/04/07 02:33:10;;;;;;;35.83;19.40;;;;;;;6.11;87.20;96416.05;1742781;81;21494;-57
2022/04/07 02:35:37;;;;;;;27.55;17.32;;;;;;;6.16;87.31;96425.95;1742894;81;21057;-57
2022/04/07 02:38:04;;;;;;;30.20;18.02;;;;;;;6.17;87.54;96426.20;1748532;80;21021;-57
2022/04/07 02:40:31;;;;;;;41.50;22.60;;;;;;;6.16;87.40;96426.75;1743618;80;21468;-57
2022/04/07 02:42:58;;;;;;;35.33;23.98;;;;;;;6.14;87.54;96427.56;1745492;82;20985;-57
2022/04/07 02:45:25;;;;;;;31.45;21.68;;;;;;;6.16;87.59;96420.57;1769649;80;21052;-57
2022/04/07 02:47:52;;;;;;;31.27;20.48;;;;;;;6.16;88.11;96415.98;1773744;80;21453;-57
2022/04/07 02:50:19;;;;;;;39.05;24.85;;;;;;;6.18;88.32;96400.90;1773643;80;21005;-57
2022/04/07 02:52:46;;;;;;;37.73;26.15;;;;;;;6.19;88.13;96408.67;1744526;80;21184;-57
2022/04/07 02:55:12;;;;;;;43.92;29.42;;;;;;;6.25;87.96;96418.83;1742765;82;21009;-57
2022/04/07 02:57:39;;;;;;;34.83;25.52;;;;;;;6.28;89.54;96421.47;1745669;80;21041;-57
2022/04/07 03:00:08;;;;;;;34.48;21.90;;;;;;;6.30;89.81;96432.73;1750706;80;22100;-57
2022/04/07 03:02:35;;;;;;;34.75;23.45;;;;;;;6.31;88.88;96426.26;1768619;80;21520;-57
2022/04/07 03:05:02;;;;;;;35.68;24.37;;;;;;;6.27;88.19;96431.44;1743005;81;20986;-57
2022/04/07 03:07:29;;;;;;;35.15;22.50;;;;;;;6.24;88.22;96427.98;1742683;82;21415;-57
2022/04/07 03:09:56;;;;;;;36.05;19.52;;;;;;;6.20;87.89;96430.44;1742814;81;21049;-56
2022/04/07 03:12:23;;;;;;;22.42;15.10;;;;;;;6.25;88.08;96432.28;1743059;81;21018;-57
2022/04/07 03:14:50;;;;;;;20.08;13.50;;;;;;;6.22;88.01;96428.80;1742746;81;21042;-57
2022/04/07 03:17:17;;;;;;;21.95;11.73;;;;;;;6.21;88.13;96433.38;1743087;82;22109;-57
2022/04/07 03:19:44;;;;;;;21.93;13.00;;;;;;;6.20;88.74;96427.75;1742664;81;21030;-56
2022/04/07 03:22:12;;;;;;;17.60;10.55;;;;;;;6.17;88.74;96425.66;1743035;82;21017;-57
2022/04/07 03:24:39;;;;;;;28.45;17.20;;;;;;;6.17;87.99;96420.27;1742930;82;21030;-57
2022/04/07 03:27:07;;;;;;;42.65;23.85;;;;;;;6.13;88.01;96416.55;1743196;82;21053;-57
2022/04/07 03:29:34;;;;;;;33.02;20.75;;;;;;;6.09;88.07;96420.92;1742793;81;21439;-57
2022/04/07 03:32:01;;;;;;;31.45;19.23;;;;;;;6.08;87.97;96422.02;1743113;81;20990;-57
2022/04/07 03:34:28;;;;;;;26.33;15.78;;;;;;;6.08;88.75;96417.98;1742744;82;21086;-57
2022/04/07 03:36:55;;;;;;;20.77;17.17;;;;;;;6.08;89.57;96412.60;1743129;82;21548;-57
2022/04/07 03:39:22;;;;;;;20.45;13.50;;;;;;;6.06;88.54;96416.65;1722263;80;21024;-57
2022/04/07 03:41:49;;;;;;;22.07;13.53;;;;;;;6.05;88.22;96415.84;1759187;80;21378;-56
2022/04/07 03:44:15;;;;;;;29.10;12.98;;;;;;;6.05;89.37;96421.77;1753774;80;20982;-57
2022/04/07 03:46:43;;;;;;;22.82;13.38;;;;;;;6.08;89.45;96413.15;1742686;81;20994;-57
2022/04/07 03:49:09;;;;;;;23.02;11.33;;;;;;;6.11;88.78;96421.97;1753626;80;21470;-56
2022/04/07 03:51:36;;;;;;;16.82;12.03;;;;;;;6.10;88.98;96421.17;1759364;80;21053;-57
2022/04/07 03:54:03;;;;;;;21.30;12.95;;;;;;;6.05;91.56;96415.84;1753646;80;21069;-57
2022/04/07 03:56:30;;;;;;;21.00;13.70;;;;;;;6.13;89.88;96415.20;1742719;82;21061;-57
2022/04/07 03:58:58;;;;;;;19.35;11.95;;;;;;;6.15;89.35;96409.53;1742806;81;21038;-57
2022/04/07 04:01:27;;;;;;;25.48;13.55;;;;;;;6.19;89.13;96418.63;1743123;82;21061;-57
2022/04/07 04:03:54;;;;;;;26.20;15.45;;;;;;;6.26;88.84;96407.52;1742302;81;26506;-57
2022/04/07 04:06:21;;;;;;;34.25;17.90;;;;;;;6.26;88.75;96413.70;1742760;82;21770;-57
2022/04/07 04:08:48;;;;;;;43.70;22.58;;;;;;;6.27;88.56;96416.64;1742817;81;21066;-57
2022/04/07 04:11:15;;;;;;;39.73;22.10;;;;;;;6.30;88.71;96417.39;1742831;82;21006;-57
2022/04/07 04:13:42;;;;;;;30.00;18.07;;;;;;;6.34;88.62;96427.05;1742954;82;21068;-57
2022/04/07 04:16:09;;;;;;;57.55;24.18;;;;;;;6.36;89.23;96424.86;1751955;80;20994;-57
2022/04/07 04:18:36;;;;;;;36.23;16.80;;;;;;;6.37;89.00;96431.28;1742867;82;21070;-57
2022/04/07 04:21:03;;;;;;;32.48;16.23;;;;;;;6.36;89.83;96420.27;1742872;82;21471;-57
2022/04/07 04:23:30;;;;;;;29.82;17.27;;;;;;;6.39;89.37;96422.92;1742811;81;21006;-57
2022/04/07 04:25:57;;;;;;;31.07;20.15;;;;;;;6.40;88.89;96418.59;1742814;82;21060;-57
2022/04/07 04:28:24;;;;;;;30.57;20.15;;;;;;;6.42;88.74;96419.12;1742878;81;21022;-57
2022/04/07 04:30:51;;;;;;;43.05;27.00;;;;;;;6.44;88.58;96426.34;1747458;80;21356;-57
2022/04/07 04:33:17;;;;;;;56.70;29.27;;;;;;;6.41;89.07;96422.91;1763050;80;21037;-57
2022/04/07 04:35:44;;;;;;;61.50;30.80;;;;;;;6.44;88.50;96422.31;1746362;80;21036;-57
2022/04/07 04:38:11;;;;;;;54.42;31.68;;;;;;;6.47;88.52;96426.30;1748965;80;22073;-57
2022/04/07 04:40:38;;;;;;;53.50;25.37;;;;;;;6.48;88.48;96432.73;1742888;82;21041;-57
2022/04/07 04:43:05;;;;;;;46.88;25.32;;;;;;;6.49;89.61;96422.77;1750849;80;21422;-57
2022/04/07 04:45:32;;;;;;;54.15;32.38;;;;;;;6.50;89.07;96423.05;1772648;80;20994;-57
2022/04/07 04:48:00;;;;;;;38.63;22.55;;;;;;;6.50;89.08;96420.35;1742715;82;21018;-57
2022/04/07 04:50:27;;;;;;;41.20;23.05;;;;;;;6.49;88.60;96426.28;1742793;82;21278;-57
2022/04/07 04:52:54;;;;;;;45.73;24.45;;;;;;;6.52;88.57;96432.97;1681302;84;21115;-57
2022/04/07 04:55:21;;;;;;;51.70;26.37;;;;;;;6.59;88.40;96435.30;1678247;84;21943;-57
2022/04/07 04:57:48;;;;;;;53.05;29.02;;;;;;;6.64;88.33;96431.16;1750163;80;21081;-57
2022/04/07 05:00:15;;;;;;;60.75;29.92;;;;;;;6.70;88.33;96439.42;1749170;80;21010;-57
2022/04/07 05:02:42;;;;;;;51.92;32.30;;;;;;;6.77;88.26;96435.81;1771496;80;21426;-57
2022/04/07 05:05:09;;;;;;;62.05;37.55;;;;;;;6.84;88.25;96441.63;1750453;80;20969;-57
2022/04/07 05:07:36;;;;;;;51.63;32.48;;;;;;;6.90;88.84;96437.75;1742951;81;21471;-57
2022/04/07 05:10:04;;;;;;;54.25;31.85;;;;;;;6.95;88.38;96436.33;1743231;82;21014;-57
2022/04/07 05:12:31;;;;;;;54.67;33.80;;;;;;;6.98;88.13;96437.08;1743232;81;21005;-57
2022/04/07 05:14:58;;;;;;;67.47;32.98;;;;;;;7.03;88.10;96441.05;1752236;80;20998;-57
2022/04/07 05:17:25;;;;;;;57.03;33.55;;;;;;;7.06;88.25;96439.09;1743139;82;21620;-57
2022/04/07 05:19:52;;;;;;;75.85;35.40;;;;;;;7.09;88.22;96429.62;1743086;82;21437;-57
2022/04/07 05:22:19;;;;;;;36.08;18.82;;;;;;;7.12;88.37;96422.31;1743067;82;21026;-57
2022/04/07 05:24:46;;;;;;;32.45;14.60;;;;;;;7.29;88.73;96423.09;1742808;81;20998;-57
2022/04/07 05:27:13;;;;;;;22.52;14.85;;;;;;;7.57;88.40;96416.63;1742948;82;21017;-57
2022/04/07 05:29:40;;;;;;;30.68;18.92;;;;;;;7.88;88.07;96416.04;1742983;81;21443;-57
2022/04/07 05:32:08;;;;;;;31.00;19.87;;;;;;;8.08;87.88;96418.30;1743127;81;21395;-57
2022/04/07 05:34:34;;;;;;;31.25;17.77;;;;;;;8.23;87.80;96415.84;1742900;82;22200;-57
2022/04/07 05:37:02;;;;;;;32.28;22.20;;;;;;;8.36;87.36;96408.27;1753899;80;21052;-57
2022/04/07 05:39:29;;;;;;;37.50;23.70;;;;;;;8.46;86.73;96401.88;1753324;80;21423;-57
2022/04/07 05:41:56;;;;;;;41.20;24.30;;;;;;;8.53;86.65;96406.83;1761030;80;21037;-57
2022/04/07 05:44:22;;;;;;;41.20;22.85;;;;;;;8.58;86.54;96406.17;1749409;80;21415;-57
2022/04/07 05:46:51;;;;;;;35.70;19.75;;;;;;;8.63;86.30;96401.19;1750082;80;21053;-57
2022/04/07 05:49:18;;;;;;;45.50;20.90;;;;;;;8.71;86.22;96395.85;1752970;80;21017;-57
2022/04/07 05:51:47;;;;;;;47.23;20.40;;;;;;;8.85;86.20;96389.60;1757841;80;21402;-57
2022/04/07 05:54:16;;;;;;;50.08;18.57;;;;;;;8.99;86.14;96394.39;1743129;82;21056;-57
2022/04/07 05:56:42;;;;;;;37.83;18.70;;;;;;;9.17;85.98;96393.39;1762326;80;21395;-57
2022/04/07 05:59:09;;;;;;;32.35;18.30;;;;;;;9.31;85.90;96391.41;1762265;80;20951;-57
2022/04/07 06:01:36;;;;;;;33.98;19.30;;;;;;;9.47;85.68;96396.37;1759327;80;21014;-57
2022/04/07 06:04:03;;;;;;;31.70;16.93;;;;;;;9.62;85.79;96397.33;1743002;81;21053;-57
2022/04/07 06:06:30;;;;;;;25.52;14.30;;;;;;;9.82;85.33;96391.34;1761083;80;21580;-57
2022/04/07 06:08:57;;;;;;;18.25;11.28;;;;;;;10.04;83.97;96389.66;1745778;80;21395;-57
2022/04/07 06:11:24;;;;;;;14.43;9.88;;;;;;;10.19;84.27;96389.21;1766136;80;21053;-57
2022/04/07 06:13:51;;;;;;;15.20;8.75;;;;;;;10.32;83.17;96373.95;1766645;80;20994;-57
2022/04/07 06:16:18;;;;;;;13.45;8.28;;;;;;;10.52;82.34;96379.33;1759185;80;21045;-57
2022/04/07 06:18:45;;;;;;;13.20;6.95;;;;;;;10.67;81.17;96378.26;1742983;80;21058;-57
2022/04/07 06:21:12;;;;;;;12.60;7.62;;;;;;;10.78;81.06;96379.31;1742732;82;21439;-57
2022/04/07 06:23:39;;;;;;;14.18;7.33;;;;;;;10.88;80.65;96377.62;1755760;80;21446;-57
2022/04/07 06:26:07;;;;;;;15.38;8.58;;;;;;;10.93;80.22;96380.94;1743581;80;21001;-57
2022/04/07 06:28:33;;;;;;;18.42;13.10;;;;;;;11.01;79.85;96377.42;1759463;80;21001;-57
2022/04/07 06:31:00;;;;;;;19.37;10.38;;;;;;;11.12;79.81;96383.32;1750098;80;20989;-57
2022/04/07 06:33:27;;;;;;;21.40;12.75;;;;;;;11.23;79.56;96374.27;1752487;80;22131;-57
2022/04/07 06:35:54;;;;;;;33.02;15.83;;;;;;;11.34;78.88;96378.22;1754961;80;21002;-57
2022/04/07 06:38:21;;;;;;;12.03;7.70;;;;;;;11.49;78.08;96375.55;1756232;80;21111;-57
2022/04/07 06:40:48;;;;;;;7.55;4.87;;;;;;;11.70;78.00;96381.03;1752788;80;21001;-58
2022/04/07 06:43:15;;;;;;;8.95;5.10;;;;;;;12.01;77.94;96379.40;1699905;82;21088;-57
2022/04/07 06:45:42;;;;;;;15.25;5.90;;;;;;;12.33;77.55;96380.64;1760737;80;21599;-57
2022/04/07 06:48:09;;;;;;;20.20;9.15;;;;;;;12.61;74.95;96371.39;1755605;80;21466;-57
2022/04/07 06:50:36;;;;;;;11.65;6.53;;;;;;;12.87;72.57;96371.17;1762797;80;21056;-57
2022/04/07 06:53:03;;;;;;;7.40;4.70;;;;;;;12.88;72.06;96362.67;1751095;80;21573;-56
2022/04/07 06:55:30;;;;;;;4.25;2.75;;;;;;;12.95;71.57;96360.21;1746786;80;21073;-57
2022/04/07 06:58:01;;;;;;;7.03;3.90;;;;;;;12.93;71.52;96357.04;1753162;80;20986;-57
2022/04/07 07:00:31;;;;;;;11.65;6.65;;;;;;;13.01;70.63;96355.94;1730462;80;21016;-57
2022/04/07 07:03:00;;;;;;;14.95;5.62;;;;;;;12.99;71.78;96354.92;1752252;80;21010;-57
2022/04/07 07:05:33;;;;;;;12.03;6.80;;;;;;;13.04;69.83;96347.89;1746576;80;21061;-57
2022/04/07 07:08:18;;;;;;;11.53;4.95;;;;;;;13.02;70.36;96346.08;1759044;80;21063;-57
2022/04/07 07:10:48;;;;;;;10.85;5.50;;;;;;;13.12;68.10;96346.22;1750638;80;21643;-57
2022/04/07 07:13:17;;;;;;;12.15;5.15;;;;;;;13.01;68.76;96349.14;1747255;80;21076;-57
2022/04/07 07:15:44;;;;;;;9.05;5.25;;;;;;;13.01;69.55;96344.49;1753770;80;21077;-57
2022/04/07 07:18:10;;;;;;;5.90;4.12;;;;;;;13.09;69.77;96350.41;1759368;80;20994;-57
2022/04/07 07:20:37;;;;;;;9.50;4.80;;;;;;;13.22;69.99;96349.89;1741735;80;21119;-57
2022/04/07 07:23:05;;;;;;;11.35;4.45;;;;;;;13.48;70.06;96349.59;1712962;82;21061;-58
2022/04/07 07:25:32;;;;;;;6.58;3.37;;;;;;;13.99;69.95;96347.34;1745442;80;21016;-58
2022/04/07 07:28:00;;;;;;;7.75;3.55;;;;;;;14.37;69.29;96350.47;1750165;80;21080;-58
2022/04/07 07:30:28;;;;;;;7.20;3.70;;;;;;;14.48;68.39;96344.56;1747312;80;21002;-58
2022/04/07 07:32:55;;;;;;;7.60;4.47;;;;;;;14.59;68.00;96356.55;1757454;80;21407;-57
2022/04/07 07:35:22;;;;;;;4.15;2.58;;;;;;;14.84;68.28;96350.45;1746379;80;21099;-58
2022/04/07 07:37:59;;;;;;;3.27;2.30;;;;;;;15.52;59.28;96345.64;1853571;75;22729;-57
2022/04/07 07:40:28;;;;;;;4.28;2.70;;;;;;;16.74;63.41;96338.88;1791649;79;21688;-57
2022/04/07 07:42:57;;;;;;;3.22;2.30;;;;;;;17.47;61.50;96335.19;1790087;79;21187;-57
2022/04/07 07:45:28;;;;;;;;;;;;;;;18.09;56.40;96335.81;1794321;78;21030;-57
2022/04/07 07:47:54;;;;;;;5.50;2.33;;;;;;;18.03;54.74;96331.25;1790382;77;20200;-57
2022/04/07 07:50:20;;;;;;;6.08;1.80;;;;;;;17.73;59.77;96329.00;1790460;78;21084;-57
2022/04/07 07:52:46;;;;;;;5.53;1.62;;;;;;;17.47;59.52;96333.23;1795957;78;21879;-56
2022/04/07 07:55:12;;;;;;;5.33;1.60;;;;;;;17.09;58.74;96336.86;1789559;78;21016;-57
2022/04/07 07:57:38;;;;;;;4.95;4.45;;;;;;;16.72;58.13;96337.08;1799434;78;20976;-57
2022/04/07 08:00:08;;;;;;;3.77;3.27;;;;;;;16.26;55.99;96333.56;1796163;78;20909;-57
2022/04/07 08:02:34;;;;;;;2.60;1.67;;;;;;;16.02;58.44;96340.05;1791611;77;21040;-57
2022/04/07 08:05:01;;;;;;;3.98;1.55;;;;;;;15.77;57.78;96333.20;1766420;80;21108;-57
2022/04/07 08:07:27;;;;;;;3.20;2.15;;;;;;;15.62;58.52;96342.98;1736701;80;21339;-57
2022/04/07 08:09:56;;;;;;;5.20;2.45;;;;;;;15.38;57.37;96337.11;1732937;81;21083;-57
2022/04/07 08:12:26;;;;;;;3.40;2.12;;;;;;;15.33;58.07;96346.12;1736064;80;21096;-57
2022/04/07 08:14:52;;;;;;;2.30;1.40;;;;;;;15.29;57.54;96347.95;1726504;81;20967;-57
2022/04/07 08:17:18;;;;;;;2.12;1.30;;;;;;;15.12;56.81;96347.12;1733536;81;21368;-57
2022/04/07 08:19:45;;;;;;;8.03;2.70;;;;;;;15.10;56.96;96343.17;1731981;80;21114;-57
2022/04/07 08:22:11;;;;;;;3.70;2.02;;;;;;;15.08;57.38;96353.06;1742906;81;21184;-56
2022/04/07 08:24:36;;;;;;;3.55;2.12;;;;;;;15.04;56.80;96347.28;1736304;81;21556;-57
2022/04/07 08:27:07;;;;;;;6.53;1.75;;;;;;;15.05;55.67;96349.69;1743195;81;21481;-56
2022/04/07 08:29:33;;;;;;;7.20;2.50;;;;;;;15.02;55.31;96349.00;1736243;80;21082;-56
2022/04/07 08:32:00;;;;;;;3.30;3.00;;;;;;;15.03;55.65;96346.49;1730899;80;21204;-57
2022/04/07 08:34:26;;;;;;;3.55;2.58;;;;;;;15.04;54.71;96339.09;1737278;81;21385;-57
2022/04/07 08:36:52;;;;;;;5.47;2.52;;;;;;;15.05;54.89;96339.34;1739207;81;20980;-57
2022/04/07 08:39:19;;;;;;;4.40;2.37;;;;;;;15.09;54.74;96334.19;1742645;81;21067;-56
2022/04/07 08:41:46;;;;;;;3.50;1.90;;;;;;;15.17;54.83;96342.00;1737510;80;21034;-57
2022/04/07 08:44:12;;;;;;;6.35;2.55;;;;;;;15.19;54.25;96335.61;1745756;79;21608;-57
2022/04/07 08:46:39;;;;;;;7.00;3.92;;;;;;;15.25;54.21;96332.86;1737235;80;20986;-57
2022/04/07 08:49:05;;;;;;;4.25;2.77;;;;;;;15.12;54.09;96336.21;1732086;80;21479;-57
2022/04/07 08:51:31;;;;;;;3.87;1.90;;;;;;;15.14;55.27;96328.50;1710668;81;20886;-57
2022/04/07 08:53:57;;;;;;;4.97;2.35;;;;;;;15.21;55.53;96323.77;1744706;81;21421;-57
2022/04/07 08:56:24;;;;;;;6.17;4.60;;;;;;;15.34;55.88;96322.56;1742726;81;22847;-56
2022/04/07 08:58:50;;;;;;;5.62;2.37;;;;;;;15.50;54.96;96316.55;1757277;80;20956;-57
2022/04/07 09:01:16;;;;;;;5.28;3.37;;;;;;;15.68;52.72;96309.39;1735154;80;21020;-57
2022/04/07 09:03:43;;;;;;;3.55;2.40;;;;;;;15.55;54.54;96307.86;1732633;80;20905;-57
2022/04/07 09:06:09;;;;;;;3.52;2.02;;;;;;;15.65;53.53;96302.70;1731237;81;21095;-57
2022/04/07 09:08:39;;;;;;;4.50;2.12;;;;;;;15.71;53.97;96298.54;1741020;80;21324;-57
2022/04/07 09:11:08;;;;;;;3.50;2.20;;;;;;;15.84;53.70;96286.95;1746347;80;21099;-58
2022/04/07 09:13:42;;;;;;;5.75;3.58;;;;;;;15.97;53.21;96289.77;1736914;80;22410;-57
2022/04/07 09:16:14;;;;;;;5.17;2.75;;;;;;;16.07;53.37;96287.09;1742151;81;21135;-57
2022/04/07 09:18:38;;;;;;;8.38;6.33;;;;;;;16.21;53.46;96282.48;1737758;81;21036;-57
2022/04/07 09:21:04;;;;;;;6.58;3.72;;;;;;;16.28;53.22;96279.91;1742267;81;21932;-57
2022/04/07 09:23:40;;;;;;;10.70;5.78;;;;;;;16.34;53.74;96273.81;1737410;81;21089;-57
2022/04/07 09:26:13;;;;;;;7.50;3.98;;;;;;;16.58;53.22;96274.69;1739043;80;21034;-57
2022/04/07 09:28:39;;;;;;;7.33;4.10;;;;;;;16.71;52.68;96266.55;1744354;80;21043;-57
2022/04/07 09:31:05;;;;;;;6.42;3.42;;;;;;;17.05;52.25;96264.84;1732131;80;20901;-56
2022/04/07 09:33:31;;;;;;;7.22;3.83;;;;;;;17.23;51.02;96261.63;1732589;80;21704;-56
2022/04/07 09:36:05;;;;;;;5.67;3.47;;;;;;;17.31;49.88;96257.28;1739604;81;20902;-57
2022/04/07 09:38:31;;;;;;;8.03;4.08;;;;;;;17.53;50.79;96252.95;1716877;81;21018;-57
2022/04/07 09:41:09;;;;;;;4.60;2.40;;;;;;;17.74;49.31;96254.67;1732113;80;21064;-57
2022/04/07 09:43:57;;;;;;;7.03;3.73;;;;;;;17.74;48.19;96249.77;1722216;81;21163;-57
2022/04/07 09:46:21;;;;;;;3.27;2.27;;;;;;;17.51;48.67;96241.55;1745014;81;21987;-57
2022/04/07 09:49:10;;;;;;;2.08;1.50;;;;;;;17.42;48.73;96252.77;1750229;80;21022;-56
2022/04/07 09:51:48;;;;;;;4.65;2.83;;;;;;;17.23;48.59;96252.05;1740248;81;21034;-57
2022/04/07 09:54:16;;;;;;;6.93;3.17;;;;;;;17.25;48.79;96240.94;1755199;80;20975;-57
2022/04/07 09:56:43;;;;;;;3.70;1.52;;;;;;;17.32;47.71;96239.70;1729359;80;21039;-57
2022/04/07 09:59:09;;;;;;;2.70;2.33;;;;;;;17.08;47.76;96233.22;1739268;80;21199;-57
2022/04/07 10:01:38;;;;;;;2.92;1.90;;;;;;;16.95;46.90;96229.88;1738695;80;21634;-56
2022/04/07 10:04:07;;;;;;;2.80;1.70;;;;;;;16.84;47.19;96238.48;1734979;80;20972;-57
2022/04/07 10:06:33;;;;;;;7.20;3.27;;;;;;;16.78;47.93;96237.98;1690588;80;21830;-57
2022/04/07 10:09:07;;;;;;;3.58;2.15;;;;;;;16.85;47.79;96235.37;1744379;80;21420;-57
2022/04/07 10:11:32;;;;;;;3.00;1.90;;;;;;;16.72;47.91;96229.06;1734627;81;22153;-57
2022/04/07 10:13:59;;;;;;;11.90;5.60;;;;;;;16.64;48.25;96218.53;1729479;81;21062;-56
2022/04/07 10:16:27;;;;;;;3.80;2.25;;;;;;;16.61;48.29;96211.06;1737270;80;20950;-57
2022/04/07 10:19:12;;;;;;;11.75;2.52;;;;;;;16.52;48.60;96205.03;1744705;80;21031;-57
2022/04/07 10:21:53;;;;;;;5.28;1.77;;;;;;;16.53;49.35;96199.20;1718323;82;21015;-56
2022/04/07 10:24:32;;;;;;;3.87;2.80;;;;;;;16.63;48.59;96193.71;1738677;80;21163;-57
2022/04/07 10:27:06;;;;;;;2.77;2.10;;;;;;;16.72;48.52;96186.67;1736895;81;21028;-56
2022/04/07 10:29:32;;;;;;;2.98;2.05;;;;;;;16.88;47.46;96177.20;1736666;80;21753;-57
2022/04/07 10:32:21;;;;;;;9.68;1.90;;;;;;;17.23;47.85;96168.58;1748020;80;20876;-57
2022/04/07 10:34:58;;;;;;;4.45;2.35;;;;;;;17.79;45.75;96170.03;1729744;81;21110;-57
2022/04/07 10:37:45;;;;;;;22.02;4.50;;;;;;;18.02;46.56;96167.96;1737970;81;22073;-57
2022/04/07 10:40:54;;;;;;;4.05;2.77;;;;;;;18.52;45.16;96160.31;1745031;81;21128;-57
2022/04/07 10:43:22;;;;;;;4.17;2.05;;;;;;;18.67;43.95;96158.55;1742662;80;21094;-57
2022/04/07 10:46:16;;;;;;;2.72;1.95;;;;;;;18.76;41.72;96149.42;1733834;81;21056;-57
2022/04/07 10:48:51;;;;;;;2.92;1.90;;;;;;;18.67;43.09;96144.83;1739821;81;21031;-57
2022/04/07 10:51:18;;;;;;;3.17;1.60;;;;;;;18.60;42.23;96152.37;1744162;81;21440;-57
2022/04/07 10:53:59;;;;;;;6.83;3.70;;;;;;;18.46;42.50;96141.27;1747650;81;21075;-57
2022/04/07 10:56:39;;;;;;;4.55;2.27;;;;;;;18.40;42.49;96128.27;1747865;80;21043;-56
2022/04/07 10:59:20;;;;;;;5.08;2.85;;;;;;;18.39;41.25;96121.22;1751121;81;21118;-57
2022/04/07 11:02:12;;;;;;;4.08;2.27;;;;;;;18.24;43.34;96127.12;1749331;81;21088;-57
2022/04/07 11:05:02;;;;;;;4.12;1.85;;;;;;;18.46;42.51;96124.03;1744112;81;21139;-56
2022/04/07 11:07:37;;;;;;;2.92;2.27;;;;;;;18.74;43.29;96105.13;1743298;80;21534;-57
2022/04/07 11:10:05;;;;;;;8.03;3.70;;;;;;;18.99;41.85;96107.30;1750366;81;21739;-57
2022/04/07 11:12:39;;;;;;;3.98;2.50;;;;;;;19.10;42.20;96116.39;1749413;80;21166;-57
2022/04/07 11:15:19;;;;;;;3.98;1.80;;;;;;;19.04;41.86;96104.17;1746036;81;21005;-57
2022/04/07 11:17:48;;;;;;;2.75;2.20;;;;;;;18.92;42.28;96105.86;1750650;81;21586;-57
2022/04/07 11:20:25;;;;;;;4.37;2.22;;;;;;;18.91;42.09;96094.69;1747582;81;21024;-57
2022/04/07 11:22:58;;;;;;;4.72;1.80;;;;;;;19.13;41.65;96090.91;1746824;81;21032;-57
2022/04/07 11:25:38;;;;;;;4.10;2.20;;;;;;;19.20;41.51;96090.97;1750738;81;21055;-57
2022/04/07 11:28:18;;;;;;;2.90;2.10;;;;;;;19.34;41.57;96084.79;1740680;80;21628;-57
2022/04/07 11:30:52;;;;;;;3.80;1.92;;;;;;;19.41;41.95;96088.37;1751215;81;21382;-57
2022/04/07 11:33:26;;;;;;;6.10;2.02;;;;;;;19.48;40.66;96083.48;1749682;80;20992;-57
2022/04/07 11:36:04;;;;;;;3.27;1.60;;;;;;;19.44;40.80;96084.84;1745788;81;21008;-57